Time;durP1;ratioP1;P1;durP2;ratioP2;P2;SDS_P1;SDS_P2;PMS_P1;PMS_P2;Temp;Humidity;BMP_temperature;BMP_pressure;BME280_temperature;BME280_humidity;BME280_pressure;Samples;Min_cycle;Max_cycle;Signal;HPM_P1;HPM_P2
2023/07/19 00:01:04;;;;;;;8.63;8.43;;;20.50;99.90;;;;;;6226664;23;20217;-74
2023/07/19 00:03:33;;;;;;;8.70;8.50;;;20.50;99.90;;;;;;6225974;23;20226;-74
2023/07/19 00:06:02;;;;;;;9.00;8.80;;;20.40;99.90;;;;;;6223022;23;20204;-73
2023/07/19 00:08:29;;;;;;;8.90;8.70;;;20.40;99.90;;;;;;6222176;23;20203;-74
2023/07/19 00:10:55;;;;;;;9.10;8.90;;;20.30;99.90;;;;;;6222008;23;20211;-74
2023/07/19 00:13:22;;;;;;;9.00;8.80;;;20.20;99.90;;;;;;6222529;23;20290;-74
2023/07/19 00:15:49;;;;;;;8.85;8.65;;;20.20;99.90;;;;;;6221971;23;20221;-74
2023/07/19 00:18:16;;;;;;;8.80;8.60;;;20.10;99.90;;;;;;6221969;23;20286;-75
2023/07/19 00:20:45;;;;;;;9.00;8.80;;;20.00;99.90;;;;;;6221126;23;20234;-74
2023/07/19 00:23:12;;;;;;;8.88;8.68;;;19.90;99.90;;;;;;6222083;23;20197;-74
2023/07/19 00:25:39;;;;;;;9.07;8.88;;;19.90;99.90;;;;;;6221944;23;20735;-74
2023/07/19 00:28:05;;;;;;;9.10;8.90;;;19.80;99.90;;;;;;6220395;23;20230;-74
2023/07/19 00:30:32;;;;;;;9.00;8.80;;;19.80;99.90;;;;;;6221680;23;20215;-74
2023/07/19 00:32:59;;;;;;;8.85;8.65;;;19.80;99.90;;;;;;6221611;23;20203;-73
2023/07/19 00:35:27;;;;;;;8.65;8.45;;;19.70;99.90;;;;;;6221964;23;20298;-73
2023/07/19 00:37:55;;;;;;;8.57;8.38;;;19.70;99.90;;;;;;6221855;23;20258;-73
2023/07/19 00:40:22;;;;;;;8.63;8.43;;;19.60;99.90;;;;;;6221446;23;20210;-73
2023/07/19 00:42:49;;;;;;;8.70;8.50;;;19.60;99.90;;;;;;6221473;23;20209;-75
2023/07/19 00:45:16;;;;;;;9.00;8.80;;;19.60;99.90;;;;;;6222277;23;20278;-73
2023/07/19 00:47:43;;;;;;;8.95;8.75;;;19.60;99.90;;;;;;6221901;22;20198;-73
2023/07/19 00:50:12;;;;;;;8.80;8.60;;;19.50;99.90;;;;;;6222058;23;20211;-74
2023/07/19 00:52:40;;;;;;;9.32;9.02;;;19.50;99.90;;;;;;6223476;23;20202;-73
2023/07/19 00:55:10;;;;;;;8.82;8.63;;;19.40;99.90;;;;;;6233784;23;20237;-73
2023/07/19 00:57:37;;;;;;;9.00;8.80;;;19.30;99.90;;;;;;6223237;23;20207;-73
2023/07/19 01:00:05;;;;;;;9.43;9.13;;;19.30;99.90;;;;;;6221470;23;20211;-73
2023/07/19 01:02:33;;;;;;;9.90;9.60;;;19.20;99.90;;;;;;6221226;23;20265;-73
2023/07/19 01:05:00;;;;;;;9.70;9.40;;;19.10;99.90;;;;;;6221635;23;20207;-73
2023/07/19 01:07:28;;;;;;;10.32;10.02;;;19.00;99.90;;;;;;6221651;23;20210;-74
2023/07/19 01:09:55;;;;;;;9.60;9.30;;;18.90;99.90;;;;;;6221562;22;20211;-73
2023/07/19 01:12:24;;;;;;;10.00;9.70;;;18.80;99.90;;;;;;6221410;23;20210;-73
2023/07/19 01:14:51;;;;;;;9.55;9.25;;;18.80;99.90;;;;;;6221899;23;20223;-74
2023/07/19 01:17:18;;;;;;;9.85;9.55;;;18.80;99.90;;;;;;6221098;23;20586;-73
2023/07/19 01:19:45;;;;;;;9.48;9.18;;;18.70;99.90;;;;;;6221033;23;20213;-73
2023/07/19 01:22:13;;;;;;;9.48;9.18;;;18.60;99.90;;;;;;6220841;23;20211;-73
2023/07/19 01:24:41;;;;;;;9.55;9.25;;;18.60;99.90;;;;;;6221315;23;20203;-73
2023/07/19 01:27:08;;;;;;;9.35;9.05;;;18.60;99.90;;;;;;6221378;23;20206;-74
2023/07/19 01:29:35;;;;;;;10.00;9.70;;;18.60;99.90;;;;;;6221100;23;20203;-74
2023/07/19 01:32:02;;;;;;;9.98;9.68;;;18.50;99.90;;;;;;6220960;23;20286;-73
2023/07/19 01:34:29;;;;;;;9.90;9.60;;;18.50;99.90;;;;;;6221225;23;20269;-73
2023/07/19 01:36:56;;;;;;;9.88;9.57;;;18.50;99.90;;;;;;6221362;23;20221;-73
2023/07/19 01:39:23;;;;;;;9.95;9.65;;;18.50;99.90;;;;;;6220944;23;20214;-74
2023/07/19 01:41:51;;;;;;;10.07;9.77;;;18.40;99.90;;;;;;6221591;23;20211;-73
2023/07/19 01:44:18;;;;;;;10.00;9.70;;;18.30;99.90;;;;;;6223806;23;20209;-73
2023/07/19 01:46:45;;;;;;;9.95;9.65;;;18.20;99.90;;;;;;6223988;23;20214;-73
2023/07/19 01:49:12;;;;;;;10.10;9.80;;;18.10;99.90;;;;;;6225065;23;20211;-73
2023/07/19 01:51:39;;;;;;;10.00;9.70;;;18.00;99.90;;;;;;6221405;23;20207;-73
2023/07/19 01:54:06;;;;;;;10.38;10.07;;;18.00;99.90;;;;;;6221433;23;20215;-72
2023/07/19 01:56:33;;;;;;;10.00;9.70;;;18.00;99.90;;;;;;6221355;22;20215;-73
2023/07/19 01:59:01;;;;;;;9.70;9.40;;;18.00;99.90;;;;;;6220683;23;20257;-73
2023/07/19 02:01:28;;;;;;;9.50;9.20;;;18.00;99.90;;;;;;6220632;23;20210;-73
2023/07/19 02:03:55;;;;;;;9.70;9.40;;;17.90;99.90;;;;;;6221222;23;20212;-73
2023/07/19 02:06:22;;;;;;;9.70;9.40;;;17.90;99.90;;;;;;6222428;23;20190;-74
2023/07/19 02:08:49;;;;;;;9.52;9.23;;;17.90;99.90;;;;;;6222475;23;20211;-74
2023/07/19 02:11:16;;;;;;;9.55;9.25;;;17.80;99.90;;;;;;6222122;23;20211;-74
2023/07/19 02:13:43;;;;;;;9.80;9.50;;;17.80;99.90;;;;;;6224374;23;20207;-74
2023/07/19 02:16:11;;;;;;;9.73;9.43;;;17.70;99.90;;;;;;6225037;23;20210;-74
2023/07/19 02:18:38;;;;;;;9.85;9.55;;;17.70;99.90;;;;;;6222894;23;20285;-73
2023/07/19 02:21:05;;;;;;;10.18;9.88;;;17.70;99.90;;;;;;6222332;23;20215;-76
2023/07/19 02:23:32;;;;;;;10.18;9.88;;;17.60;99.90;;;;;;6222850;23;20210;-76
2023/07/19 02:25:59;;;;;;;10.00;9.70;;;17.50;99.90;;;;;;6223249;23;20201;-75
2023/07/19 02:28:27;;;;;;;9.70;9.40;;;17.40;99.90;;;;;;6222667;23;20206;-76
2023/07/19 02:30:53;;;;;;;9.80;9.50;;;17.40;99.90;;;;;;6222501;23;20217;-77
2023/07/19 02:33:22;;;;;;;9.70;9.40;;;17.40;99.90;;;;;;6222664;23;20214;-76
2023/07/19 02:35:54;;;;;;;10.10;9.80;;;17.40;99.90;;;;;;6222768;23;20216;-76
2023/07/19 02:38:22;;;;;;;10.25;9.95;;;17.40;99.90;;;;;;6222891;23;20262;-76
2023/07/19 02:40:49;;;;;;;9.93;9.63;;;17.40;99.90;;;;;;6222406;23;20286;-75
2023/07/19 02:43:16;;;;;;;10.02;9.73;;;17.40;99.90;;;;;;6223761;23;20203;-75
2023/07/19 02:45:43;;;;;;;10.07;9.77;;;17.30;99.90;;;;;;6228732;23;20234;-75
2023/07/19 02:48:10;;;;;;;9.70;9.40;;;17.40;99.90;;;;;;6229507;23;20297;-76
2023/07/19 02:50:44;;;;;;;9.80;9.50;;;17.30;99.90;;;;;;6226702;23;20211;-76
2023/07/19 02:53:11;;;;;;;9.80;9.50;;;17.40;99.90;;;;;;6223599;23;20251;-76
2023/07/19 02:55:39;;;;;;;9.70;9.40;;;17.40;99.90;;;;;;6222534;23;20732;-76
2023/07/19 02:58:07;;;;;;;9.90;9.60;;;17.30;99.90;;;;;;6222877;23;20207;-76
2023/07/19 03:00:34;;;;;;;9.70;9.40;;;17.30;99.90;;;;;;6221819;23;20214;-76
2023/07/19 03:03:01;;;;;;;9.80;9.50;;;17.30;99.90;;;;;;6222762;23;20277;-76
2023/07/19 03:05:28;;;;;;;9.80;9.50;;;17.30;99.90;;;;;;6222187;23;20213;-76
2023/07/19 03:07:56;;;;;;;9.80;9.50;;;17.30;99.90;;;;;;6222945;23;20285;-76
2023/07/19 03:10:23;;;;;;;9.30;9.00;;;17.30;99.90;;;;;;6221750;23;20203;-76
2023/07/19 03:12:50;;;;;;;9.82;9.52;;;17.30;99.90;;;;;;6222079;23;20286;-76
2023/07/19 03:15:17;;;;;;;10.20;9.90;;;17.20;99.90;;;;;;6221866;23;20204;-76
2023/07/19 03:17:44;;;;;;;10.18;9.88;;;17.20;99.90;;;;;;6222399;23;20218;-76
2023/07/19 03:20:15;;;;;;;10.10;9.80;;;17.20;99.90;;;;;;6222773;23;20214;-75
2023/07/19 03:22:41;;;;;;;10.05;9.75;;;17.10;99.90;;;;;;6222450;23;20191;-75
2023/07/19 03:25:11;;;;;;;10.20;9.90;;;17.10;99.90;;;;;;6222064;23;20207;-76
2023/07/19 03:27:38;;;;;;;10.23;9.93;;;17.00;99.90;;;;;;6222116;23;20213;-76
2023/07/19 03:30:06;;;;;;;10.40;10.10;;;17.00;99.90;;;;;;6222038;23;20202;-76
2023/07/19 03:32:33;;;;;;;10.27;9.98;;;17.00;99.90;;;;;;6221768;23;20207;-76
2023/07/19 03:35:00;;;;;;;10.40;10.10;;;17.10;99.90;;;;;;6222008;23;20209;-76
2023/07/19 03:37:27;;;;;;;10.43;10.13;;;17.10;99.90;;;;;;6222565;22;20221;-76
2023/07/19 03:39:54;;;;;;;10.52;10.23;;;17.10;99.90;;;;;;6225976;22;20203;-76
2023/07/19 03:42:22;;;;;;;10.10;9.80;;;17.00;99.90;;;;;;6222642;23;20217;-76
2023/07/19 03:44:49;;;;;;;10.38;10.07;;;17.00;99.90;;;;;;6222695;23;20258;-76
2023/07/19 03:47:16;;;;;;;10.30;10.00;;;17.00;99.90;;;;;;6222383;23;20238;-75
2023/07/19 03:49:44;;;;;;;10.20;9.90;;;17.00;99.90;;;;;;6222865;22;20298;-76
2023/07/19 03:52:11;;;;;;;10.20;9.90;;;17.00;99.90;;;;;;6222218;23;20285;-76
2023/07/19 03:54:38;;;;;;;9.98;9.68;;;17.00;99.90;;;;;;6222140;23;20230;-76
2023/07/19 03:57:05;;;;;;;10.07;9.77;;;17.00;99.90;;;;;;6221665;23;20269;-76
2023/07/19 03:59:33;;;;;;;10.40;10.10;;;17.00;99.90;;;;;;6221823;22;20203;-76
2023/07/19 04:02:00;;;;;;;10.57;10.27;;;17.10;99.90;;;;;;6221964;23;20555;-76
2023/07/19 04:04:29;;;;;;;10.20;9.90;;;17.10;99.90;;;;;;6222336;23;20294;-76
2023/07/19 04:06:56;;;;;;;10.30;10.00;;;17.10;99.90;;;;;;6221923;23;20218;-75
2023/07/19 04:09:23;;;;;;;10.50;10.20;;;17.10;99.90;;;;;;6222398;22;20191;-76
2023/07/19 04:11:50;;;;;;;10.25;9.95;;;17.10;99.90;;;;;;6222576;23;20207;-76
2023/07/19 04:14:17;;;;;;;10.00;9.70;;;17.10;99.90;;;;;;6222713;23;20238;-78
2023/07/19 04:16:46;;;;;;;10.73;10.43;;;17.00;99.90;;;;;;6222756;23;20274;-76
2023/07/19 04:19:13;;;;;;;10.50;10.20;;;17.10;99.90;;;;;;6222768;22;20207;-76
2023/07/19 04:21:40;;;;;;;10.35;10.05;;;17.10;99.90;;;;;;6221612;22;20267;-76
2023/07/19 04:24:07;;;;;;;10.48;10.18;;;17.10;99.90;;;;;;6221384;23;20278;-76
2023/07/19 04:26:34;;;;;;;10.23;9.93;;;17.10;99.90;;;;;;6221583;23;20214;-75
2023/07/19 04:29:01;;;;;;;10.40;10.10;;;17.10;99.90;;;;;;6221623;23;20199;-76
2023/07/19 04:31:28;;;;;;;10.40;10.10;;;17.20;99.90;;;;;;6221703;23;20235;-76
2023/07/19 04:33:57;;;;;;;10.50;10.20;;;17.30;99.90;;;;;;6224506;22;20279;-76
2023/07/19 04:36:24;;;;;;;10.50;10.20;;;17.40;99.90;;;;;;6223219;23;20262;-76
2023/07/19 04:38:51;;;;;;;10.30;10.00;;;17.40;99.90;;;;;;6223025;22;20195;-76
2023/07/19 04:41:18;;;;;;;10.40;10.10;;;17.50;99.90;;;;;;6222586;22;20199;-77
2023/07/19 04:43:44;;;;;;;10.25;9.95;;;17.50;99.90;;;;;;6221862;23;20255;-78
2023/07/19 04:46:11;;;;;;;10.48;10.18;;;17.50;99.90;;;;;;6222275;23;20234;-76
2023/07/19 04:48:39;;;;;;;10.50;10.20;;;17.60;99.90;;;;;;6222261;23;20210;-76
2023/07/19 04:51:07;;;;;;;10.20;9.90;;;17.60;99.90;;;;;;6221782;23;20273;-76
2023/07/19 04:53:34;;;;;;;10.60;10.30;;;17.60;99.90;;;;;;6221572;23;20203;-76
2023/07/19 04:56:01;;;;;;;10.55;10.25;;;17.60;99.90;;;;;;6221905;23;20217;-76
2023/07/19 04:58:28;;;;;;;10.68;10.38;;;17.60;99.90;;;;;;6223137;23;20206;-76
2023/07/19 05:00:55;;;;;;;10.60;10.30;;;17.60;99.90;;;;;;6222845;23;20211;-75
2023/07/19 05:03:23;;;;;;;10.55;10.25;;;17.60;99.90;;;;;;6222682;23;20282;-75
2023/07/19 05:05:50;;;;;;;10.30;10.00;;;17.60;99.90;;;;;;6222255;23;20199;-76
2023/07/19 05:08:18;;;;;;;10.40;10.10;;;17.60;99.90;;;;;;6222439;22;20262;-76
2023/07/19 05:10:45;;;;;;;10.30;10.00;;;17.60;99.90;;;;;;6221792;23;20217;-76
2023/07/19 05:13:12;;;;;;;10.18;9.88;;;17.70;99.90;;;;;;6221882;23;20282;-76
2023/07/19 05:15:39;;;;;;;10.10;9.80;;;17.90;99.90;;;;;;6221442;23;20211;-76
2023/07/19 05:18:06;;;;;;;10.55;10.25;;;17.90;99.90;;;;;;6221672;23;20294;-76
2023/07/19 05:20:33;;;;;;;10.35;10.05;;;18.10;99.90;;;;;;6221471;23;20203;-75
2023/07/19 05:23:00;;;;;;;10.57;10.27;;;18.20;99.90;;;;;;6221614;23;20198;-76
2023/07/19 05:25:28;;;;;;;10.65;10.35;;;18.30;99.90;;;;;;6221654;23;20331;-75
2023/07/19 05:27:55;;;;;;;10.65;10.35;;;18.40;99.90;;;;;;6224044;22;20213;-76
2023/07/19 05:30:22;;;;;;;10.40;10.10;;;18.50;99.90;;;;;;6227427;23;20249;-76
2023/07/19 05:32:49;;;;;;;10.43;10.13;;;18.70;99.90;;;;;;6226362;23;20241;-76
2023/07/19 05:35:16;;;;;;;10.60;10.30;;;18.90;99.90;;;;;;6223675;22;20206;-75
2023/07/19 05:37:43;;;;;;;10.60;10.30;;;19.00;99.90;;;;;;6222303;23;20206;-75
2023/07/19 05:40:11;;;;;;;10.38;10.07;;;19.20;99.90;;;;;;6221492;23;20214;-76
2023/07/19 05:42:40;;;;;;;10.50;10.20;;;19.40;99.90;;;;;;6221555;23;20207;-76
2023/07/19 05:45:09;;;;;;;10.52;10.23;;;19.50;99.90;;;;;;6221385;23;20207;-76
2023/07/19 05:47:36;;;;;;;10.35;10.05;;;19.70;99.90;;;;;;6222097;23;20210;-76
2023/07/19 05:50:04;;;;;;;10.27;9.98;;;19.80;99.90;;;;;;6221477;23;20235;-76
2023/07/19 05:52:31;;;;;;;10.30;10.00;;;19.90;99.90;;;;;;6221084;23;20198;-75
2023/07/19 05:54:58;;;;;;;10.40;10.10;;;20.00;99.90;;;;;;6221871;23;20290;-76
2023/07/19 05:57:25;;;;;;;10.23;9.93;;;20.10;99.90;;;;;;6223281;23;20221;-75
2023/07/19 05:59:53;;;;;;;10.43;10.13;;;20.20;99.90;;;;;;6222787;23;20209;-77
2023/07/19 06:02:20;;;;;;;10.40;10.10;;;20.30;99.90;;;;;;6221172;22;20213;-76
2023/07/19 06:04:47;;;;;;;10.50;10.20;;;20.50;99.90;;;;;;6221100;23;20206;-76
2023/07/19 06:07:16;;;;;;;10.32;10.02;;;20.60;99.90;;;;;;6219694;23;20206;-76
2023/07/19 06:09:42;;;;;;;10.55;10.25;;;20.70;99.90;;;;;;6219590;23;20206;-76
2023/07/19 06:12:10;;;;;;;10.55;10.25;;;20.80;99.90;;;;;;6219564;23;20207;-76
2023/07/19 06:14:37;;;;;;;10.40;10.10;;;20.80;99.90;;;;;;6220045;22;20254;-76
2023/07/19 06:17:06;;;;;;;10.48;10.18;;;21.00;99.90;;;;;;6219530;23;20211;-76
2023/07/19 06:19:33;;;;;;;10.73;10.43;;;21.10;99.90;;;;;;6220231;22;20198;-76
2023/07/19 06:22:01;;;;;;;10.60;10.30;;;21.10;99.90;;;;;;6222482;22;20206;-75
2023/07/19 06:24:28;;;;;;;10.50;10.20;;;21.20;99.90;;;;;;6224267;22;20286;-76
2023/07/19 06:26:55;;;;;;;10.55;10.25;;;21.30;99.90;;;;;;6226842;22;20210;-76
2023/07/19 06:29:23;;;;;;;10.60;10.30;;;21.40;99.90;;;;;;6222752;22;20202;-78
2023/07/19 06:31:51;;;;;;;10.60;10.30;;;21.40;99.90;;;;;;6220617;23;20211;-77
2023/07/19 06:34:19;;;;;;;10.68;10.38;;;21.40;99.90;;;;;;6222438;23;20298;-79
2023/07/19 06:36:46;;;;;;;10.80;10.50;;;21.40;99.90;;;;;;6223277;22;20195;-78
2023/07/19 06:39:13;;;;;;;11.10;10.80;;;21.40;99.90;;;;;;6220886;22;20206;-78
2023/07/19 06:41:40;;;;;;;10.70;10.40;;;21.50;99.90;;;;;;6219401;23;20241;-78
2023/07/19 06:44:07;;;;;;;10.50;10.20;;;21.60;99.90;;;;;;6219746;23;20289;-78
2023/07/19 06:46:34;;;;;;;10.60;10.30;;;21.70;99.90;;;;;;6220326;22;20245;-79
2023/07/19 06:49:00;;;;;;;10.43;10.13;;;21.80;99.90;;;;;;6219686;23;20819;-78
2023/07/19 06:51:29;;;;;;;10.90;10.60;;;22.00;99.90;;;;;;6222538;23;20207;-78
2023/07/19 06:53:56;;;;;;;10.80;10.50;;;22.10;99.90;;;;;;6225791;22;20286;-80
2023/07/19 06:56:23;;;;;;;10.90;10.60;;;22.20;99.90;;;;;;6225827;22;20278;-79
2023/07/19 06:58:50;;;;;;;10.68;10.38;;;22.30;99.90;;;;;;6227196;22;20214;-80
2023/07/19 07:01:17;;;;;;;10.43;10.13;;;22.50;99.90;;;;;;6228130;22;20207;-79
2023/07/19 07:03:44;;;;;;;10.35;10.05;;;22.60;99.90;;;;;;6223189;22;20227;-78
2023/07/19 07:06:11;;;;;;;10.40;10.10;;;22.70;99.90;;;;;;6225000;22;20203;-79
2023/07/19 07:08:42;;;;;;;10.13;9.82;;;22.70;99.90;;;;;;6227130;22;20250;-80
2023/07/19 07:11:09;;;;;;;10.40;10.10;;;22.80;99.90;;;;;;6229074;23;20207;-80
2023/07/19 07:13:36;;;;;;;10.30;10.00;;;22.90;99.90;;;;;;6229225;23;20243;-79
2023/07/19 07:16:03;;;;;;;10.40;10.10;;;23.00;99.90;;;;;;6227582;22;20198;-79
2023/07/19 07:18:30;;;;;;;10.20;9.90;;;23.00;99.90;;;;;;6228062;22;20246;-78
2023/07/19 07:20:57;;;;;;;10.27;9.98;;;23.10;99.90;;;;;;6227744;23;20203;-79
2023/07/19 07:23:25;;;;;;;10.32;10.02;;;23.30;99.90;;;;;;6224727;23;20226;-80
2023/07/19 07:25:56;;;;;;;10.52;10.23;;;23.40;99.90;;;;;;6225772;22;20195;-81
2023/07/19 07:28:23;;;;;;;10.50;10.20;;;23.60;99.90;;;;;;6226461;22;20195;-80
2023/07/19 07:30:50;;;;;;;10.20;9.90;;;23.70;99.90;;;;;;6226458;22;20203;-80
2023/07/19 07:33:19;;;;;;;10.27;9.98;;;23.80;99.90;;;;;;6224127;23;20191;-78
2023/07/19 07:35:46;;;;;;;10.25;9.95;;;23.90;99.90;;;;;;6225748;23;20203;-78
2023/07/19 07:38:14;;;;;;;10.35;10.05;;;24.00;99.90;;;;;;6225325;23;20206;-78
2023/07/19 07:40:41;;;;;;;10.13;9.82;;;24.10;99.90;;;;;;6222978;23;20203;-78
2023/07/19 07:43:09;;;;;;;10.70;10.40;;;24.30;99.90;;;;;;6224605;23;20199;-79
2023/07/19 07:45:36;;;;;;;10.50;10.20;;;24.40;99.90;;;;;;6224899;22;20201;-78
2023/07/19 07:48:05;;;;;;;10.35;10.05;;;24.60;99.90;;;;;;6224910;23;20207;-78
2023/07/19 07:50:33;;;;;;;10.50;10.20;;;24.60;99.90;;;;;;6224108;23;20207;-78
2023/07/19 07:53:00;;;;;;;10.90;10.60;;;24.70;99.90;;;;;;6225071;22;20191;-78
2023/07/19 07:55:26;;;;;;;10.70;10.40;;;24.80;99.90;;;;;;6224615;22;20209;-78
2023/07/19 07:57:53;;;;;;;10.60;10.30;;;24.80;99.90;;;;;;6222920;23;20206;-77
2023/07/19 08:00:22;;;;;;;10.88;10.57;;;24.90;99.90;;;;;;6224335;23;20203;-77
2023/07/19 08:02:49;;;;;;;11.00;10.70;;;25.00;99.90;;;;;;6224161;23;20233;-77
2023/07/19 08:05:16;;;;;;;10.38;10.07;;;25.10;99.90;;;;;;6223536;23;20213;-78
2023/07/19 08:07:43;;;;;;;10.65;10.35;;;25.30;99.90;;;;;;6223990;23;20203;-78
2023/07/19 08:10:10;;;;;;;10.30;10.00;;;25.40;99.90;;;;;;6224187;23;20207;-78
2023/07/19 08:12:38;;;;;;;10.23;9.93;;;25.50;99.90;;;;;;6224024;23;20234;-78
2023/07/19 08:15:07;;;;;;;10.13;9.82;;;25.60;99.90;;;;;;6231657;23;20271;-83
2023/07/19 08:17:36;;;;;;;10.05;9.75;;;25.60;99.90;;;;;;6238201;22;20229;-82
2023/07/19 08:20:05;;;;;;;10.32;10.02;;;25.60;99.90;;;;;;6239768;23;20259;-82
2023/07/19 08:22:35;;;;;;;10.18;9.88;;;25.70;99.90;;;;;;6226395;22;20235;-79
2023/07/19 08:25:02;;;;;;;10.60;10.30;;;25.80;99.90;;;;;;6195942;23;20247;-80
2023/07/19 08:27:29;;;;;;;10.65;10.35;;;26.00;99.90;;;;;;6195207;23;20220;-80
2023/07/19 08:29:56;;;;;;;10.68;10.38;;;26.20;99.90;;;;;;6193695;23;20196;-80
2023/07/19 08:32:23;;;;;;;10.90;10.60;;;26.40;99.90;;;;;;6197221;23;20187;-82
2023/07/19 08:34:52;;;;;;;10.63;10.32;;;26.50;99.90;;;;;;6198652;23;20204;-82
2023/07/19 08:37:19;;;;;;;11.00;10.70;;;26.60;99.90;;;;;;6204061;23;20268;-82
2023/07/19 08:39:46;;;;;;;10.90;10.60;;;26.70;99.90;;;;;;6196014;23;20235;-79
2023/07/19 08:42:16;;;;;;;11.00;10.70;;;26.80;99.90;;;;;;6196415;23;20254;-85
2023/07/19 08:44:44;;;;;;;11.00;10.70;;;26.80;99.90;;;;;;6199925;23;20195;-83
2023/07/19 08:47:12;;;;;;;11.05;10.75;;;26.70;99.90;;;;;;6198832;23;20200;-82
2023/07/19 08:49:42;;;;;;;11.07;10.77;;;26.60;99.90;;;;;;6198779;23;20191;-85
2023/07/19 08:52:14;;;;;;;10.90;10.60;;;26.60;99.90;;;;;;6199239;23;20254;-85
2023/07/19 08:54:41;;;;;;;11.07;10.77;;;26.70;99.90;;;;;;6198814;23;20266;-84
2023/07/19 08:57:09;;;;;;;10.65;10.35;;;26.90;99.90;;;;;;6199831;23;20195;-85
2023/07/19 08:59:36;;;;;;;10.70;10.40;;;27.10;99.90;;;;;;6196930;23;20206;-81
2023/07/19 09:02:07;;;;;;;10.90;10.60;;;27.20;99.90;;;;;;6199432;23;20199;-85
2023/07/19 09:04:37;;;;;;;10.52;10.23;;;27.30;99.90;;;;;;6196303;23;20199;-86
2023/07/19 09:07:05;;;;;;;10.38;10.07;;;27.30;99.90;;;;;;6196101;23;20198;-86
2023/07/19 09:10:14;;;;;;;10.20;9.90;;;27.50;99.90;;;;;;6195482;23;20254;-86
2023/07/19 09:12:44;;;;;;;10.45;10.15;;;27.40;99.90;;;;;;6195914;22;20324;-86
2023/07/19 09:15:35;;;;;;;10.57;10.27;;;27.50;99.90;;;;;;6195465;23;20200;-86
2023/07/19 09:18:05;;;;;;;10.90;10.60;;;27.80;99.90;;;;;;6200789;22;20223;-86
2023/07/19 09:20:37;;;;;;;10.93;10.63;;;27.90;99.90;;;;;;6206591;23;20211;-85
2023/07/19 09:23:10;;;;;;;10.85;10.55;;;27.80;99.90;;;;;;6205561;23;20203;-87
2023/07/19 09:25:55;;;;;;;10.63;10.32;;;28.00;99.90;;;;;;6205009;23;20192;-85
2023/07/19 09:28:45;;;;;;;10.70;10.40;;;28.20;99.90;;;;;;6202717;23;20195;-87
2023/07/19 09:31:14;;;;;;;10.63;10.32;;;28.20;99.90;;;;;;6191806;23;20256;-86
2023/07/19 09:33:42;;;;;;;10.90;10.60;;;28.30;99.90;;;;;;6198282;23;20215;-83
2023/07/19 09:36:09;;;;;;;10.50;10.20;;;28.60;99.90;;;;;;6200066;23;20230;-82
2023/07/19 09:38:36;;;;;;;10.60;10.30;;;28.60;99.90;;;;;;6198217;23;20202;-82
2023/07/19 09:41:11;;;;;;;10.63;10.32;;;28.70;99.90;;;;;;6198231;23;20196;-86
2023/07/19 09:43:40;;;;;;;10.55;10.25;;;28.80;99.90;;;;;;6198747;23;20210;-83
2023/07/19 09:46:17;;;;;;;10.35;10.05;;;28.50;99.90;;;;;;6200276;23;20215;-86
2023/07/19 09:49:09;;;;;;;10.68;10.38;;;28.50;99.90;;;;;;6200631;23;20195;-85
2023/07/19 09:52:05;;;;;;;10.63;10.32;;;28.60;99.90;;;;;;6199563;23;20199;-86
2023/07/19 09:58:22;;;;;;;;;;;;;;;;;;;;;
2023/07/19 10:00:53;;;;;;;10.18;9.88;;;29.50;99.90;;;;;;6190438;23;20199;-84
2023/07/19 10:03:29;;;;;;;10.18;9.88;;;29.60;99.90;;;;;;6203537;23;20191;-84
2023/07/19 10:06:31;;;;;;;10.00;9.70;;;29.80;99.90;;;;;;6195272;23;20227;-85
2023/07/19 10:09:32;;;;;;;9.90;9.60;;;30.00;99.90;;;;;;6196529;22;20198;-85
2023/07/19 10:12:01;;;;;;;10.05;9.75;;;29.70;99.90;;;;;;6197255;23;20258;-84
2023/07/19 10:14:35;;;;;;;10.77;10.48;;;29.40;99.90;;;;;;6195955;23;20255;-84
2023/07/19 10:17:06;;;;;;;10.90;10.60;;;28.80;99.90;;;;;;6197708;23;20222;-84
2023/07/19 10:19:35;;;;;;;10.65;10.35;;;28.80;99.90;;;;;;6195642;23;20192;-85
2023/07/19 10:22:07;;;;;;;10.80;10.50;;;29.10;99.90;;;;;;6196017;23;20203;-85
2023/07/19 10:24:39;;;;;;;11.30;11.00;;;29.70;99.90;;;;;;6200518;23;20203;-88
2023/07/19 10:27:10;;;;;;;10.90;10.60;;;30.00;99.90;;;;;;6194414;23;20196;-84
2023/07/19 10:29:43;;;;;;;10.65;10.35;;;30.10;99.90;;;;;;6196792;23;20208;-83
2023/07/19 10:32:11;;;;;;;10.82;10.52;;;30.10;99.90;;;;;;6197564;23;20254;-84
2023/07/19 10:34:39;;;;;;;10.90;10.60;;;30.00;99.90;;;;;;6198715;23;20202;-84
2023/07/19 10:37:08;;;;;;;10.73;10.43;;;29.70;99.90;;;;;;6209631;23;20215;-84
2023/07/19 10:39:35;;;;;;;10.68;10.38;;;30.00;99.90;;;;;;6217022;23;20210;-84
2023/07/19 10:42:05;;;;;;;10.63;10.32;;;29.80;99.90;;;;;;6218181;23;20183;-83
2023/07/19 10:44:32;;;;;;;10.80;10.50;;;29.20;99.90;;;;;;6211746;23;20305;-84
2023/07/19 10:47:01;;;;;;;10.80;10.50;;;29.10;99.90;;;;;;6199686;23;20219;-85
2023/07/19 10:49:29;;;;;;;10.85;10.55;;;28.90;99.90;;;;;;6199838;23;20199;-83
2023/07/19 10:51:58;;;;;;;10.93;10.63;;;29.20;99.90;;;;;;6200350;23;20250;-84
2023/07/19 10:54:28;;;;;;;11.00;10.70;;;29.30;99.90;;;;;;6199148;23;20238;-84
2023/07/19 10:56:57;;;;;;;10.98;10.68;;;29.30;99.90;;;;;;6200430;23;20274;-83
2023/07/19 10:59:24;;;;;;;11.02;10.73;;;28.90;99.90;;;;;;6198871;23;20218;-85
2023/07/19 11:01:52;;;;;;;11.20;10.90;;;28.90;99.90;;;;;;6198328;23;20202;-84
2023/07/19 11:04:21;;;;;;;10.95;10.65;;;29.40;99.90;;;;;;6197694;23;20199;-84
2023/07/19 11:06:56;;;;;;;11.02;10.73;;;29.90;99.90;;;;;;6198890;23;20203;-84
2023/07/19 11:09:24;;;;;;;10.77;10.48;;;30.10;99.90;;;;;;6199664;23;20211;-85
2023/07/19 11:11:53;;;;;;;11.20;10.90;;;30.30;99.90;;;;;;6198531;23;20200;-86
2023/07/19 11:14:41;;;;;;;10.98;10.68;;;30.50;99.90;;;;;;6200146;23;20204;-85
2023/07/19 11:17:08;;;;;;;11.10;10.80;;;30.50;99.90;;;;;;6199875;23;20251;-85
2023/07/19 11:19:41;;;;;;;11.30;11.00;;;30.30;99.90;;;;;;6202010;22;20211;-85
2023/07/19 11:22:10;;;;;;;10.75;10.45;;;30.20;99.90;;;;;;6204934;22;20191;-84
2023/07/19 11:24:42;;;;;;;10.60;10.30;;;30.30;99.90;;;;;;6203972;23;20282;-85
2023/07/19 11:27:10;;;;;;;10.63;10.32;;;30.20;99.90;;;;;;6203508;23;20199;-85
2023/07/19 11:29:37;;;;;;;10.90;10.60;;;30.10;99.90;;;;;;6201541;23;20211;-85
2023/07/19 11:32:16;;;;;;;10.90;10.60;;;30.10;99.90;;;;;;6201583;23;20195;-84
2023/07/19 11:34:54;;;;;;;10.70;10.40;;;29.90;99.90;;;;;;6206908;23;20188;-85
2023/07/19 11:37:24;;;;;;;10.73;10.43;;;30.10;99.90;;;;;;6204834;22;20646;-84
2023/07/19 11:39:53;;;;;;;10.98;10.68;;;29.80;99.90;;;;;;6206278;23;20265;-84
2023/07/19 11:42:44;;;;;;;10.65;10.35;;;29.40;99.90;;;;;;6203688;23;20195;-86
2023/07/19 11:45:15;;;;;;;10.43;10.13;;;29.00;99.90;;;;;;6201105;23;20211;-85
2023/07/19 11:47:43;;;;;;;10.80;10.50;;;28.90;99.90;;;;;;6197600;23;20192;-85
2023/07/19 11:50:13;;;;;;;10.70;10.40;;;28.60;99.90;;;;;;6197265;23;20195;-85
2023/07/19 11:52:47;;;;;;;10.50;10.20;;;28.90;99.90;;;;;;6197217;23;20210;-85
2023/07/19 11:55:16;;;;;;;10.32;10.02;;;29.30;99.90;;;;;;6198206;23;20194;-84
2023/07/19 11:57:52;;;;;;;10.07;9.77;;;29.70;99.90;;;;;;6200810;23;20210;-85
2023/07/19 12:00:22;;;;;;;10.48;10.18;;;29.70;99.90;;;;;;6198575;23;20203;-85
2023/07/19 12:02:51;;;;;;;10.57;10.27;;;29.60;99.90;;;;;;6200963;23;20258;-84
2023/07/19 12:05:22;;;;;;;10.70;10.40;;;29.80;99.90;;;;;;6209173;23;20196;-84
2023/07/19 12:07:54;;;;;;;10.55;10.25;;;30.40;99.90;;;;;;6219824;23;20203;-85
2023/07/19 12:10:26;;;;;;;10.85;10.55;;;30.90;99.90;;;;;;6219334;23;20191;-85
2023/07/19 12:12:57;;;;;;;11.00;10.70;;;31.30;99.90;;;;;;6219544;23;20207;-84
2023/07/19 12:15:25;;;;;;;10.65;10.35;;;31.60;99.90;;;;;;6219318;23;20214;-85
2023/07/19 12:17:56;;;;;;;10.80;10.50;;;31.30;99.90;;;;;;6207708;23;20183;-85
2023/07/19 12:20:35;;;;;;;10.73;10.43;;;30.90;99.90;;;;;;6197494;23;20262;-85
2023/07/19 12:26:03;;;;;;;10.30;10.00;;;31.10;99.90;;;;;;6195237;23;20210;-85
2023/07/19 12:43:29;;;;;;;11.18;10.88;;;30.50;99.90;;;;;;6227456;22;20209;-85
2023/07/19 12:46:06;;;;;;;10.82;10.52;;;30.90;99.90;;;;;;6174837;23;20288;-84
2023/07/19 13:18:16;;;;;;;11.02;10.73;;;31.90;99.90;;;;;;6196474;23;20207;-85
2023/07/19 13:37:15;;;;;;;10.80;10.50;;;31.40;99.90;;;;;;6231475;22;20202;-86
2023/07/19 14:23:12;;;;;;;10.70;10.40;;;28.80;99.90;;;;;;6223374;22;20388;-85
2023/07/19 14:25:41;;;;;;;10.43;10.13;;;28.70;99.90;;;;;;6207056;23;20227;-78
2023/07/19 14:28:08;;;;;;;10.70;10.40;;;28.60;99.90;;;;;;6212925;23;20215;-79
2023/07/19 14:30:35;;;;;;;10.60;10.30;;;28.50;99.90;;;;;;6213714;23;20226;-78
2023/07/19 14:33:03;;;;;;;10.60;10.30;;;28.40;99.90;;;;;;6213343;23;20196;-79